Time;durP1;ratioP1;P1;durP2;ratioP2;P2;SDS_P1;SDS_P2;PMS_P1;PMS_P2;Temp;Humidity;BMP_temperature;BMP_pressure;BME280_temperature;BME280_humidity;BME280_pressure;Samples;Min_cycle;Max_cycle;Signal;HPM_P1;HPM_P2
2022/11/08 00:01:53;;;;;;;;;;;14.30;92.10;;;;;;4973881;28;1394;-72
2022/11/08 00:04:22;;;;;;;;;;;14.30;92.30;;;;;;5022478;28;1769;-72
2022/11/08 00:15:08;;;;;;;;;;;14.30;92.10;;;;;;5021094;28;1018;-72
2022/11/08 00:17:35;;;;;;;;;;;14.30;92.00;;;;;;5015912;28;1102;-72
2022/11/08 00:20:05;;;;;;;;;;;14.40;91.90;;;;;;5013929;28;1357;-73
2022/11/08 00:22:32;;;;;;;;;;;14.40;92.00;;;;;;5015439;28;1664;-73
2022/11/08 00:25:00;;;;;;;;;;;14.40;92.00;;;;;;5013675;28;1149;-72
2022/11/08 00:27:28;;;;;;;;;;;14.40;91.90;;;;;;5012551;28;1022;-72
2022/11/08 00:29:55;;;;;;;;;;;14.40;91.90;;;;;;5022894;28;1895;-73
2022/11/08 00:32:24;;;;;;;;;;;14.40;91.90;;;;;;5020711;28;1292;-72
2022/11/08 00:34:51;;;;;;;;;;;14.40;91.90;;;;;;5014653;28;1108;-72
2022/11/08 00:37:21;;;;;;;;;;;14.40;91.90;;;;;;5010719;28;1029;-73
2022/11/08 00:39:49;;;;;;;;;;;14.30;91.80;;;;;;5013312;28;1514;-73
2022/11/08 00:42:16;;;;;;;;;;;14.40;91.90;;;;;;5018032;28;1292;-73
2022/11/08 00:44:44;;;;;;;;;;;14.30;92.10;;;;;;5026324;28;1284;-73
2022/11/08 00:47:12;;;;;;;;;;;14.30;92.10;;;;;;5015816;28;1505;-73
2022/11/08 00:49:39;;;;;;;;;;;14.30;92.20;;;;;;5016052;28;1021;-73
2022/11/08 00:52:07;;;;;;;;;;;14.20;92.10;;;;;;5008410;28;1960;-73
2022/11/08 00:54:36;;;;;;;;;;;14.10;92.00;;;;;;5017070;28;1101;-73
2022/11/08 00:57:03;;;;;;;;;;;14.20;92.20;;;;;;5024997;28;1424;-74
2022/11/08 00:59:31;;;;;;;;;;;14.20;92.30;;;;;;5021672;28;1142;-72
2022/11/08 01:01:59;;;;;;;;;;;14.20;92.20;;;;;;5022868;28;1302;-72
2022/11/08 01:04:26;;;;;;;;;;;14.10;92.20;;;;;;5012979;28;1092;-72
2022/11/08 01:06:54;;;;;;;;;;;14.10;92.20;;;;;;5021140;28;1042;-72
2022/11/08 01:09:22;;;;;;;;;;;14.00;92.30;;;;;;5011136;28;1037;-72
2022/11/08 01:11:51;;;;;;;;;;;14.00;92.30;;;;;;5020695;28;1898;-75
2022/11/08 01:14:18;;;;;;;;;;;14.00;92.40;;;;;;5023803;28;1028;-74
2022/11/08 01:16:46;;;;;;;;;;;13.90;92.40;;;;;;5019743;28;1014;-71
2022/11/08 01:19:14;;;;;;;;;;;13.90;92.40;;;;;;5013725;28;1165;-73
2022/11/08 01:21:41;;;;;;;;;;;13.90;92.50;;;;;;5016970;28;1386;-70
2022/11/08 01:24:09;;;;;;;;;;;13.90;92.50;;;;;;5017561;28;1014;-72
2022/11/08 01:26:37;;;;;;;;;;;14.00;92.40;;;;;;5014446;28;1155;-71
2022/11/08 01:29:06;;;;;;;;;;;14.00;92.30;;;;;;5021795;28;1097;-71
2022/11/08 01:31:33;;;;;;;;;;;14.00;92.20;;;;;;5018239;28;1910;-72
2022/11/08 01:34:01;;;;;;;;;;;13.90;92.40;;;;;;5015986;28;1014;-74
2022/11/08 01:36:28;;;;;;;;;;;13.90;92.40;;;;;;5016223;28;1061;-73
2022/11/08 01:38:57;;;;;;;;;;;13.90;92.40;;;;;;5016605;28;1054;-72
2022/11/08 01:41:25;;;;;;;;;;;13.90;92.40;;;;;;5024485;28;1292;-72
2022/11/08 01:43:53;;;;;;;;;;;13.90;92.70;;;;;;5017922;28;1068;-72
2022/11/08 01:46:36;;;;;;;;;;;13.90;92.50;;;;;;5020623;28;1655;-72
2022/11/08 01:49:34;;;;;;;;;;;13.90;92.50;;;;;;5017089;28;1176;-69
2022/11/08 01:52:15;;;;;;;;;;;13.80;92.40;;;;;;5014756;28;1991;-70
2022/11/08 01:54:45;;;;;;;;;;;13.80;92.40;;;;;;5017818;28;1005;-71
2022/11/08 01:57:15;;;;;;;;;;;13.80;92.60;;;;;;5013678;28;2001;-73
2022/11/08 01:59:44;;;;;;;;;;;13.80;92.70;;;;;;5012714;28;1018;-71
2022/11/08 02:02:12;;;;;;;;;;;13.70;92.60;;;;;;5018277;28;1193;-74
2022/11/08 02:04:42;;;;;;;;;;;13.70;92.70;;;;;;5018028;28;1035;-71
2022/11/08 02:07:11;;;;;;;;;;;13.70;92.70;;;;;;5022045;28;1200;-71
2022/11/08 02:09:41;;;;;;;;;;;13.60;92.80;;;;;;5020225;28;1013;-71
2022/11/08 02:12:09;;;;;;;;;;;13.50;92.90;;;;;;5019860;28;1993;-71
2022/11/08 02:20:23;;;;;;;;;;;13.50;93.00;;;;;;5040547;28;1749;-89
2022/11/08 02:22:54;;;;;;;;;;;13.50;93.00;;;;;;5060622;28;1586;-90
2022/11/08 02:25:25;;;;;;;;;;;13.80;92.90;;;;;;5052434;28;1512;-90
2022/11/08 02:27:58;;;;;;;;;;;13.20;92.60;;;;;;5050371;28;1425;-91
2022/11/08 02:30:31;;;;;;;;;;;13.60;92.90;;;;;;5043765;28;1495;-89
2022/11/08 02:32:59;;;;;;;;;;;13.60;92.90;;;;;;5050554;28;1910;-89
2022/11/08 02:35:30;;;;;;;;;;;13.60;91.90;;;;;;5057739;28;1532;-89
2022/11/08 02:37:57;;;;;;;;;;;13.60;92.20;;;;;;5045245;28;1681;-88
2022/11/08 02:40:27;;;;;;;;;;;14.00;92.20;;;;;;5040870;28;1705;-90
2022/11/08 02:42:55;;;;;;;;;;;13.40;92.20;;;;;;5059614;28;1658;-91
2022/11/08 02:45:23;;;;;;;;;;;13.80;92.00;;;;;;5044601;28;988;-90
2022/11/08 02:47:51;;;;;;;;;;;13.90;91.70;;;;;;5044078;28;1497;-88
2022/11/08 02:50:19;;;;;;;;;;;13.50;91.70;;;;;;5045865;28;1685;-89
2022/11/08 02:52:46;;;;;;;;;;;14.20;91.80;;;;;;5042546;28;1977;-89
2022/11/08 02:55:14;;;;;;;;;;;13.90;91.50;;;;;;5040002;28;1566;-89
2022/11/08 02:57:44;;;;;;;;;;;14.10;91.70;;;;;;5040099;28;1550;-90
2022/11/08 03:00:13;;;;;;;;;;;13.90;91.90;;;;;;5056057;28;1546;-89
2022/11/08 03:02:42;;;;;;;;;;;14.00;92.30;;;;;;5058848;28;1441;-89
2022/11/08 03:05:10;;;;;;;;;;;14.30;91.40;;;;;;5051530;28;1561;-90
2022/11/08 03:07:38;;;;;;;;;;;14.30;91.70;;;;;;5057058;28;1603;-88
2022/11/08 03:10:06;;;;;;;;;;;14.00;91.50;;;;;;5078972;28;1512;-89
2022/11/08 03:12:34;;;;;;;;;;;14.00;91.50;;;;;;5068035;28;1906;-88
2022/11/08 03:15:04;;;;;;;;;;;13.60;90.90;;;;;;5055816;28;1532;-89
2022/11/08 03:18:01;;;;;;;;;;;14.20;91.90;;;;;;5059105;28;1716;-89
2022/11/08 03:20:37;;;;;;;;;;;13.60;91.40;;;;;;5058570;28;954;-89
2022/11/08 03:23:08;;;;;;;;;;;13.90;91.50;;;;;;5049480;28;1535;-90
2022/11/08 03:25:36;;;;;;;;;;;13.90;91.20;;;;;;5049639;28;1733;-90
2022/11/08 03:28:13;;;;;;;;;;;14.20;91.60;;;;;;5051438;28;1449;-89
2022/11/08 03:30:49;;;;;;;;;;;13.90;91.90;;;;;;5050726;28;1539;-90
2022/11/08 03:33:20;;;;;;;;;;;14.10;92.00;;;;;;5053084;28;1989;-91
2022/11/08 03:35:48;;;;;;;;;;;14.10;91.80;;;;;;5049276;28;1575;-90
2022/11/08 03:38:16;;;;;;;;;;;13.80;91.60;;;;;;5047222;28;1406;-90
2022/11/08 03:40:45;;;;;;;;;;;13.80;91.70;;;;;;5053984;28;1586;-90
2022/11/08 03:43:13;;;;;;;;;;;13.70;91.80;;;;;;5062644;28;1515;-90
2022/11/08 03:45:42;;;;;;;;;;;13.70;91.50;;;;;;5063491;28;1543;-90
2022/11/08 03:48:13;;;;;;;;;;;13.70;91.80;;;;;;5051736;28;1495;-91
2022/11/08 03:51:08;;;;;;;;;;;13.80;92.00;;;;;;5049313;28;1527;-91
2022/11/08 03:57:02;;;;;;;;;;;13.40;92.30;;;;;;5025396;28;1502;-91
2022/11/08 04:09:11;;;;;;;;;;;13.20;92.90;;;;;;4995737;22;1894;-70
2022/11/08 04:17:09;;;;;;;;;;;13.10;93.20;;;;;;5027104;28;1006;-72
2022/11/08 04:22:22;;;;;;;;;;;13.00;93.20;;;;;;5022782;28;1358;-72
2022/11/08 04:24:50;;;;;;;;;;;12.90;93.30;;;;;;5023854;28;1341;-70
2022/11/08 04:27:18;;;;;;;;;;;12.90;93.40;;;;;;5023542;28;1115;-70
2022/11/08 04:29:46;;;;;;;;;;;13.00;93.40;;;;;;5025743;28;1633;-70
2022/11/08 04:32:13;;;;;;;;;;;12.90;93.40;;;;;;5018252;28;1906;-70
2022/11/08 04:34:41;;;;;;;;;;;12.90;93.50;;;;;;5024232;28;1026;-70
2022/11/08 04:37:08;;;;;;;;;;;12.90;93.40;;;;;;5025986;28;1036;-73
2022/11/08 04:39:36;;;;;;;;;;;12.90;93.50;;;;;;5017308;28;1419;-70
2022/11/08 04:42:05;;;;;;;;;;;12.80;93.60;;;;;;5026608;28;1273;-70
2022/11/08 04:44:33;;;;;;;;;;;12.80;93.50;;;;;;5021313;28;1147;-69
2022/11/08 04:47:00;;;;;;;;;;;12.70;93.60;;;;;;5022200;28;1160;-70
2022/11/08 04:49:28;;;;;;;;;;;12.80;93.60;;;;;;5022100;28;1431;-70
2022/11/08 04:51:55;;;;;;;;;;;12.80;93.60;;;;;;5025630;28;1269;-70
2022/11/08 04:54:23;;;;;;;;;;;12.70;93.70;;;;;;5023832;28;1903;-70
2022/11/08 04:56:50;;;;;;;;;;;12.70;93.80;;;;;;5018753;28;1034;-71
2022/11/08 04:59:20;;;;;;;;;;;12.70;93.80;;;;;;5018062;28;990;-71
2022/11/08 05:01:47;;;;;;;;;;;12.70;93.80;;;;;;5020378;28;1319;-75
2022/11/08 05:04:15;;;;;;;;;;;12.70;93.80;;;;;;5017476;28;1666;-75
2022/11/08 05:06:43;;;;;;;;;;;12.60;93.80;;;;;;5018572;28;1021;-76
2022/11/08 05:09:11;;;;;;;;;;;12.60;93.90;;;;;;5024744;28;1301;-75
2022/11/08 05:11:38;;;;;;;;;;;12.50;93.90;;;;;;5022688;28;1300;-71
2022/11/08 05:14:06;;;;;;;;;;;12.50;94.00;;;;;;5016791;28;2253;-70
2022/11/08 05:16:35;;;;;;;;;;;12.50;94.00;;;;;;5027962;28;2202;-70
2022/11/08 05:19:02;;;;;;;;;;;12.40;94.00;;;;;;5034059;28;2233;-70
2022/11/08 05:24:19;;;;;;;;;;;12.30;94.20;;;;;;5017968;28;994;-70
2022/11/08 05:26:47;;;;;;;;;;;12.30;94.40;;;;;;5021820;28;1107;-71
2022/11/08 05:29:16;;;;;;;;;;;12.20;94.60;;;;;;5017124;28;1472;-70
2022/11/08 05:31:45;;;;;;;;;;;12.10;94.60;;;;;;5016816;28;2006;-71
2022/11/08 05:34:12;;;;;;;;;;;12.10;94.70;;;;;;5024288;28;1978;-71
2022/11/08 05:36:40;;;;;;;;;;;12.00;94.70;;;;;;5022875;28;1060;-71
2022/11/08 05:39:08;;;;;;;;;;;12.00;95.00;;;;;;5017865;28;1076;-69
2022/11/08 05:41:36;;;;;;;;;;;11.90;95.00;;;;;;5022067;28;1405;-70
2022/11/08 05:44:03;;;;;;;;;;;11.80;95.10;;;;;;5021545;28;1148;-71
2022/11/08 05:46:31;;;;;;;;;;;11.80;95.10;;;;;;5021735;28;1009;-71
2022/11/08 05:49:00;;;;;;;;;;;11.80;95.20;;;;;;5020558;28;1671;-71
2022/11/08 05:51:28;;;;;;;;;;;11.70;95.20;;;;;;5016825;28;1288;-71
2022/11/08 05:53:56;;;;;;;;;;;11.70;95.30;;;;;;5020024;28;1906;-70
2022/11/08 05:56:23;;;;;;;;;;;11.60;95.30;;;;;;5019466;28;2283;-72
2022/11/08 05:58:51;;;;;;;;;;;11.60;95.40;;;;;;5022351;28;1036;-72
2022/11/08 06:01:19;;;;;;;;;;;11.60;95.40;;;;;;5018658;28;1380;-72
2022/11/08 06:03:48;;;;;;;;;;;11.70;95.50;;;;;;5023456;28;1049;-71
2022/11/08 06:06:18;;;;;;;;;;;11.60;95.30;;;;;;5023063;28;1392;-71
2022/11/08 06:08:45;;;;;;;;;;;11.60;95.50;;;;;;5021044;28;1005;-71
2022/11/08 06:11:18;;;;;;;;;;;11.50;95.30;;;;;;5022333;28;1757;-71
2022/11/08 06:13:46;;;;;;;;;;;11.50;95.40;;;;;;5019939;28;1906;-71
2022/11/08 06:16:15;;;;;;;;;;;11.60;95.60;;;;;;5023402;28;1088;-71
2022/11/08 06:18:43;;;;;;;;;;;11.50;95.50;;;;;;5022449;28;1730;-70
2022/11/08 06:21:12;;;;;;;;;;;11.50;95.60;;;;;;5016776;28;1663;-70
2022/11/08 06:23:41;;;;;;;;;;;11.50;95.60;;;;;;5021440;28;1081;-70
2022/11/08 06:26:09;;;;;;;;;;;11.40;95.50;;;;;;5019611;28;1501;-68
2022/11/08 06:28:36;;;;;;;;;;;11.40;95.80;;;;;;5023899;28;1048;-67
2022/11/08 06:31:05;;;;;;;;;;;11.30;95.80;;;;;;5017854;28;1384;-68
2022/11/08 06:33:33;;;;;;;;;;;11.30;96.00;;;;;;5017530;28;2017;-70
2022/11/08 06:36:00;;;;;;;;;;;11.20;96.10;;;;;;5021321;28;1141;-67
2022/11/08 06:38:28;;;;;;;;;;;11.20;96.20;;;;;;5018652;28;1044;-64
2022/11/08 06:40:59;;;;;;;;;;;11.20;96.40;;;;;;5025619;28;1480;-66
2022/11/08 06:43:27;;;;;;;;;;;11.30;96.10;;;;;;5022842;28;1052;-65
2022/11/08 06:45:59;;;;;;;;;;;11.20;96.10;;;;;;5018463;28;1918;-65
2022/11/08 06:48:26;;;;;;;;;;;11.20;96.10;;;;;;5021274;28;1015;-65
2022/11/08 06:51:01;;;;;;;;;;;11.20;96.10;;;;;;5022311;28;1840;-66
2022/11/08 06:53:29;;;;;;;;;;;11.30;96.10;;;;;;5018476;28;1977;-66
2022/11/08 06:55:59;;;;;;;;;;;11.30;96.00;;;;;;5023455;28;1025;-64
2022/11/08 06:58:27;;;;;;;;;;;11.60;95.90;;;;;;5020087;28;1319;-65
2022/11/08 07:00:55;;;;;;;;;;;11.40;95.90;;;;;;5024131;28;1274;-66
2022/11/08 07:03:22;;;;;;;;;;;11.30;96.10;;;;;;5024086;28;1094;-65
2022/11/08 07:05:50;;;;;;;;;;;11.30;96.00;;;;;;5024882;28;1037;-66
2022/11/08 07:08:18;;;;;;;;;;;11.40;95.80;;;;;;5023108;28;1061;-65
2022/11/08 07:10:50;;;;;;;;;;;11.30;95.80;;;;;;5020367;28;2014;-66
2022/11/08 07:13:19;;;;;;;;;;;11.40;95.80;;;;;;5021278;28;1585;-66
2022/11/08 07:15:48;;;;;;;;;;;11.20;96.20;;;;;;5020015;28;1548;-64
2022/11/08 07:18:16;;;;;;;;;;;11.40;96.00;;;;;;5021280;28;1715;-66
2022/11/08 07:20:44;;;;;;;;;;;11.40;95.90;;;;;;5019577;28;1378;-66
2022/11/08 07:23:12;;;;;;;;;;;11.50;95.90;;;;;;5014448;28;1496;-65
2022/11/08 07:25:40;;;;;;;;;;;11.50;95.80;;;;;;5033376;28;1828;-65
2022/11/08 07:28:13;;;;;;;;;;;11.50;95.90;;;;;;5023304;28;1128;-63
2022/11/08 07:30:42;;;;;;;;;;;11.50;95.90;;;;;;5020089;28;1002;-63
2022/11/08 07:33:10;;;;;;;;;;;11.50;95.70;;;;;;5018041;28;1627;-64
2022/11/08 07:35:38;;;;;;;;;;;11.40;95.50;;;;;;5016444;28;1918;-64
2022/11/08 07:38:06;;;;;;;;;;;11.50;96.00;;;;;;5017645;28;1810;-64
2022/11/08 07:40:33;;;;;;;;;;;11.60;95.50;;;;;;5013025;28;1814;-65
2022/11/08 07:43:01;;;;;;;;;;;11.70;95.40;;;;;;5014174;28;1545;-65
2022/11/08 07:45:39;;;;;;;;;;;11.70;95.30;;;;;;5019639;28;1563;-65
2022/11/08 07:48:09;;;;;;;;;;;11.80;95.40;;;;;;5020136;28;1813;-76
2022/11/08 07:50:39;;;;;;;;;;;11.90;94.90;;;;;;5022483;28;1521;-71
2022/11/08 07:53:07;;;;;;;;;;;11.90;94.90;;;;;;5013342;28;1600;-71
2022/11/08 07:55:36;;;;;;;;;;;12.00;94.70;;;;;;5019870;28;1914;-71
2022/11/08 07:58:04;;;;;;;;;;;12.00;94.60;;;;;;5018556;28;1675;-71
2022/11/08 08:00:35;;;;;;;;;;;12.10;94.40;;;;;;5022150;28;1660;-71
2022/11/08 08:03:03;;;;;;;;;;;12.20;94.50;;;;;;5023269;28;1644;-72
2022/11/08 08:05:34;;;;;;;;;;;12.20;94.30;;;;;;5025880;28;993;-70
2022/11/08 08:08:02;;;;;;;;;;;12.30;94.20;;;;;;5017888;28;1402;-72
2022/11/08 08:10:30;;;;;;;;;;;12.30;93.90;;;;;;5018858;28;1734;-72
2022/11/08 08:12:58;;;;;;;;;;;12.30;93.80;;;;;;5019308;28;1268;-73
2022/11/08 08:15:26;;;;;;;;;;;12.30;93.90;;;;;;5022472;28;1926;-75
2022/11/08 08:17:53;;;;;;;;;;;12.40;93.80;;;;;;5018161;28;1246;-72
2022/11/08 08:20:21;;;;;;;;;;;12.30;93.50;;;;;;5019424;28;1073;-69
2022/11/08 08:22:51;;;;;;;;;;;12.40;93.70;;;;;;5024703;28;1257;-73
2022/11/08 08:25:19;;;;;;;;;;;12.40;93.60;;;;;;5022390;28;1124;-74
2022/11/08 08:27:47;;;;;;;;;;;12.40;93.40;;;;;;5023142;28;1667;-75
2022/11/08 08:30:16;;;;;;;;;;;12.60;93.30;;;;;;5026006;28;1584;-74
2022/11/08 08:32:44;;;;;;;;;;;12.60;93.10;;;;;;5025825;28;1639;-74
2022/11/08 08:35:19;;;;;;;;;;;12.70;93.00;;;;;;5021787;28;1938;-74
2022/11/08 08:37:47;;;;;;;;;;;12.60;92.90;;;;;;5018802;28;1533;-75
2022/11/08 08:40:16;;;;;;;;;;;12.70;92.90;;;;;;5025752;28;965;-75
2022/11/08 08:42:44;;;;;;;;;;;12.70;92.80;;;;;;5025979;28;1651;-74
2022/11/08 08:45:11;;;;;;;;;;;12.70;92.50;;;;;;5019669;28;1735;-75
2022/11/08 08:47:41;;;;;;;;;;;12.60;92.60;;;;;;5024215;28;1056;-74
2022/11/08 08:50:09;;;;;;;;;;;12.60;92.50;;;;;;5023073;28;1398;-74
2022/11/08 08:52:37;;;;;;;;;;;12.60;92.60;;;;;;5026956;28;1501;-74
2022/11/08 08:55:05;;;;;;;;;;;12.60;92.40;;;;;;5019708;28;1987;-75
2022/11/08 08:57:34;;;;;;;;;;;12.60;92.40;;;;;;5019541;28;1593;-74
2022/11/08 09:00:02;;;;;;;;;;;12.70;92.40;;;;;;5020178;28;1742;-75
2022/11/08 09:02:50;;;;;;;;;;;12.70;92.50;;;;;;5024882;28;1390;-74
2022/11/08 09:05:18;;;;;;;;;;;12.70;92.50;;;;;;5016760;28;1675;-73
2022/11/08 09:07:45;;;;;;;;;;;12.80;92.30;;;;;;5020809;28;1672;-73
2022/11/08 09:10:13;;;;;;;;;;;12.90;92.20;;;;;;5020060;28;1663;-74
2022/11/08 09:12:43;;;;;;;;;;;12.90;92.00;;;;;;5030107;28;1707;-78
2022/11/08 09:15:10;;;;;;;;;;;12.90;91.70;;;;;;5019607;28;1906;-74
2022/11/08 09:17:38;;;;;;;;;;;13.00;91.70;;;;;;5022306;28;1552;-74
2022/11/08 09:20:06;;;;;;;;;;;13.10;91.50;;;;;;5020154;28;1627;-73
2022/11/08 09:22:34;;;;;;;;;;;13.10;91.50;;;;;;5023050;28;1312;-73
2022/11/08 09:25:02;;;;;;;;;;;13.10;91.10;;;;;;5020853;28;1663;-73
2022/11/08 09:27:30;;;;;;;;;;;13.20;91.20;;;;;;5024531;28;1121;-74
2022/11/08 09:29:59;;;;;;;;;;;13.30;91.10;;;;;;5022141;28;1006;-74
2022/11/08 09:32:27;;;;;;;;;;;13.30;91.00;;;;;;5037905;28;1345;-71
2022/11/08 09:35:15;;;;;;;;;;;13.30;91.00;;;;;;5033142;28;1938;-71
2022/11/08 09:37:43;;;;;;;;;;;13.40;90.80;;;;;;5024322;28;1054;-74
2022/11/08 09:40:17;;;;;;;;;;;13.40;90.70;;;;;;5025743;28;993;-72
2022/11/08 09:42:50;;;;;;;;;;;13.40;90.60;;;;;;5025334;28;1350;-70
2022/11/08 09:45:21;;;;;;;;;;;13.50;90.70;;;;;;5025121;28;1285;-72
2022/11/08 09:47:50;;;;;;;;;;;13.50;90.80;;;;;;5023424;28;1065;-71
2022/11/08 09:50:21;;;;;;;;;;;13.50;90.40;;;;;;5025360;28;1109;-71
2022/11/08 09:52:54;;;;;;;;;;;13.70;90.60;;;;;;5015895;28;1370;-70
2022/11/08 09:55:27;;;;;;;;;;;13.70;90.70;;;;;;5024089;28;1910;-70
2022/11/08 09:58:07;;;;;;;;;;;13.70;90.70;;;;;;5018508;28;1684;-70
2022/11/08 10:00:38;;;;;;;;;;;13.70;90.50;;;;;;5021821;28;1105;-71
2022/11/08 10:03:08;;;;;;;;;;;13.70;90.30;;;;;;5019941;28;1474;-69
2022/11/08 10:05:39;;;;;;;;;;;13.80;90.50;;;;;;5024160;28;1084;-70
2022/11/08 10:08:09;;;;;;;;;;;13.80;90.50;;;;;;5020783;28;1041;-73
2022/11/08 10:10:49;;;;;;;;;;;13.80;90.50;;;;;;5021734;28;1017;-74
2022/11/08 10:13:21;;;;;;;;;;;13.80;90.20;;;;;;5019396;28;1062;-73
2022/11/08 10:15:54;;;;;;;;;;;13.80;90.10;;;;;;5021475;28;1934;-72
2022/11/08 10:18:31;;;;;;;;;;;13.80;90.20;;;;;;5026552;28;1192;-73
2022/11/08 10:21:01;;;;;;;;;;;13.70;90.30;;;;;;5024805;28;1327;-73
2022/11/08 10:23:35;;;;;;;;;;;13.80;90.20;;;;;;5023387;28;1547;-72
2022/11/08 10:26:05;;;;;;;;;;;13.70;90.10;;;;;;5033070;28;1115;-72
2022/11/08 10:28:35;;;;;;;;;;;13.80;90.20;;;;;;5020215;28;1113;-73
2022/11/08 10:31:05;;;;;;;;;;;14.00;90.30;;;;;;5030757;28;1256;-73
2022/11/08 10:33:35;;;;;;;;;;;14.00;90.00;;;;;;5030220;28;1053;-70
2022/11/08 10:36:06;;;;;;;;;;;14.00;90.10;;;;;;5028445;28;1981;-71
2022/11/08 10:38:35;;;;;;;;;;;14.00;90.20;;;;;;5027272;28;1097;-70
2022/11/08 10:41:08;;;;;;;;;;;13.90;90.20;;;;;;5030520;28;1411;-70
2022/11/08 10:43:37;;;;;;;;;;;14.00;90.30;;;;;;5025212;28;1377;-71
2022/11/08 10:46:11;;;;;;;;;;;14.00;90.40;;;;;;5026867;28;1088;-72
2022/11/08 10:48:39;;;;;;;;;;;14.10;90.30;;;;;;5038579;28;1080;-72
2022/11/08 10:51:07;;;;;;;;;;;14.10;90.10;;;;;;5035599;28;1260;-70
2022/11/08 10:53:43;;;;;;;;;;;14.10;90.00;;;;;;5019936;28;1108;-71
2022/11/08 10:56:10;;;;;;;;;;;14.10;90.00;;;;;;5017721;28;1906;-71
2022/11/08 10:58:39;;;;;;;;;;;14.20;90.00;;;;;;5022486;28;1085;-70
2022/11/08 11:01:14;;;;;;;;;;;14.20;90.20;;;;;;5017763;28;1391;-71
2022/11/08 11:03:41;;;;;;;;;;;14.20;89.70;;;;;;5023810;28;1068;-70
2022/11/08 11:06:21;;;;;;;;;;;14.30;89.60;;;;;;5015674;28;1042;-70
2022/11/08 11:08:50;;;;;;;;;;;14.30;90.00;;;;;;5017525;28;1444;-71
2022/11/08 11:11:25;;;;;;;;;;;14.40;89.50;;;;;;5028514;28;1291;-71
2022/11/08 11:14:06;;;;;;;;;;;14.40;89.30;;;;;;5025463;28;1057;-71
2022/11/08 11:16:36;;;;;;;;;;;14.50;89.10;;;;;;5017383;28;1910;-72
2022/11/08 11:19:04;;;;;;;;;;;14.50;89.20;;;;;;5023651;28;1119;-72
2022/11/08 11:21:36;;;;;;;;;;;14.50;88.50;;;;;;5016291;28;1273;-71
2022/11/08 11:24:08;;;;;;;;;;;14.60;88.10;;;;;;5014894;28;1114;-69
2022/11/08 11:26:40;;;;;;;;;;;14.70;88.00;;;;;;5020247;28;1448;-73
2022/11/08 11:29:15;;;;;;;;;;;14.70;87.70;;;;;;5021249;28;1528;-71
2022/11/08 11:31:45;;;;;;;;;;;14.80;88.10;;;;;;5019320;28;1292;-71
2022/11/08 11:34:24;;;;;;;;;;;14.90;87.40;;;;;;5026421;28;1612;-72
2022/11/08 11:36:54;;;;;;;;;;;14.90;88.10;;;;;;5028630;28;1910;-70
2022/11/08 11:39:22;;;;;;;;;;;15.00;87.70;;;;;;5042454;28;950;-70
2022/11/08 11:41:53;;;;;;;;;;;15.10;87.70;;;;;;5041342;28;1308;-70
2022/11/08 11:44:23;;;;;;;;;;;15.10;87.20;;;;;;5022677;28;1136;-71
2022/11/08 11:46:54;;;;;;;;;;;15.20;86.90;;;;;;5022449;28;1067;-73
2022/11/08 11:49:24;;;;;;;;;;;15.20;86.90;;;;;;5020637;28;994;-72
2022/11/08 11:51:52;;;;;;;;;;;15.10;86.80;;;;;;5022749;28;1311;-73
2022/11/08 11:54:21;;;;;;;;;;;15.00;86.80;;;;;;5024640;28;1084;-74
2022/11/08 11:56:55;;;;;;;;;;;15.10;87.00;;;;;;5023584;28;1993;-74
2022/11/08 11:59:34;;;;;;;;;;;15.10;86.80;;;;;;5022986;28;1270;-74
2022/11/08 12:02:23;;;;;;;;;;;15.20;86.90;;;;;;5024253;28;1334;-74
2022/11/08 12:05:01;;;;;;;;;;;15.20;86.80;;;;;;5021260;28;717;-71
2022/11/08 12:07:31;;;;;;;;;;;15.20;86.20;;;;;;5027966;28;1458;-65
2022/11/08 12:10:08;;;;;;;;;;;15.20;86.80;;;;;;5023555;28;1731;-65
2022/11/08 12:12:44;;;;;;;;;;;15.30;89.00;;;;;;5022841;28;1754;-65
2022/11/08 12:15:20;;;;;;;;;;;15.40;86.40;;;;;;5025239;28;1048;-65
2022/11/08 12:18:03;;;;;;;;;;;15.50;85.70;;;;;;5018411;28;1918;-65
2022/11/08 12:20:38;;;;;;;;;;;15.50;85.50;;;;;;5019684;28;1763;-66
2022/11/08 12:23:23;;;;;;;;;;;15.40;84.50;;;;;;5024552;28;1679;-65
2022/11/08 12:25:54;;;;;;;;;;;15.60;84.50;;;;;;5010392;28;1679;-65
2022/11/08 12:28:29;;;;;;;;;;;15.60;84.40;;;;;;5022509;28;1757;-66
2022/11/08 12:31:02;;;;;;;;;;;15.60;85.10;;;;;;5025129;28;1366;-65
2022/11/08 12:33:36;;;;;;;;;;;15.70;84.20;;;;;;5017498;28;1158;-65
2022/11/08 12:36:11;;;;;;;;;;;15.60;83.70;;;;;;5025820;28;1117;-66
2022/11/08 12:38:43;;;;;;;;;;;15.60;83.50;;;;;;5025046;28;1981;-65
2022/11/08 12:41:14;;;;;;;;;;;15.70;82.90;;;;;;5024692;28;1707;-68
2022/11/08 12:43:48;;;;;;;;;;;15.70;82.50;;;;;;5024420;28;1179;-64
2022/11/08 12:46:17;;;;;;;;;;;15.70;83.50;;;;;;5021611;28;1250;-65
2022/11/08 12:49:01;;;;;;;;;;;15.70;83.10;;;;;;5021450;28;1127;-64
2022/11/08 12:51:35;;;;;;;;;;;15.70;83.00;;;;;;5025286;28;1268;-66
2022/11/08 12:54:14;;;;;;;;;;;15.70;82.80;;;;;;5023565;28;1540;-66
2022/11/08 12:56:43;;;;;;;;;;;15.80;82.50;;;;;;5023592;28;1902;-66
2022/11/08 12:59:16;;;;;;;;;;;15.80;82.70;;;;;;5017344;28;1153;-66
2022/11/08 13:01:44;;;;;;;;;;;15.70;82.20;;;;;;5024443;28;1527;-66
2022/11/08 13:04:36;;;;;;;;;;;15.80;82.50;;;;;;5022465;28;1126;-64
2022/11/08 13:07:08;;;;;;;;;;;15.90;83.10;;;;;;5018847;28;1679;-64
2022/11/08 13:09:42;;;;;;;;;;;16.00;82.70;;;;;;5023084;28;1010;-66
2022/11/08 13:12:15;;;;;;;;;;;16.00;82.20;;;;;;5026402;28;1295;-65
2022/11/08 13:14:43;;;;;;;;;;;16.00;84.20;;;;;;5025850;28;1341;-65
2022/11/08 13:17:16;;;;;;;;;;;15.90;84.50;;;;;;5024048;28;2074;-64
2022/11/08 13:20:01;;;;;;;;;;;15.90;82.80;;;;;;5022889;28;1013;-66
2022/11/08 13:22:43;;;;;;;;;;;16.00;83.70;;;;;;5023514;28;1272;-65
2022/11/08 13:25:38;;;;;;;;;;;15.90;82.70;;;;;;5019313;28;1036;-65
2022/11/08 13:28:26;;;;;;;;;;;15.90;82.50;;;;;;5000928;28;1201;-66
2022/11/08 13:30:57;;;;;;;;;;;15.90;83.70;;;;;;5023048;28;1305;-65
2022/11/08 13:33:28;;;;;;;;;;;15.90;81.20;;;;;;5021971;28;1081;-67
2022/11/08 13:36:03;;;;;;;;;;;16.00;82.50;;;;;;5018579;28;1030;-66
2022/11/08 13:38:36;;;;;;;;;;;16.10;81.20;;;;;;5024589;28;1952;-65
2022/11/08 13:41:11;;;;;;;;;;;16.00;81.70;;;;;;5021765;28;1296;-65
2022/11/08 13:43:39;;;;;;;;;;;16.00;81.40;;;;;;5022166;28;1376;-65
2022/11/08 13:46:25;;;;;;;;;;;16.10;82.90;;;;;;5020731;28;1528;-65
2022/11/08 13:49:05;;;;;;;;;;;16.00;82.60;;;;;;5023656;28;1021;-64
2022/11/08 13:51:33;;;;;;;;;;;16.00;82.20;;;;;;5021647;28;1370;-65
2022/11/08 13:54:04;;;;;;;;;;;15.90;82.70;;;;;;5017923;28;1080;-65
2022/11/08 13:56:43;;;;;;;;;;;15.80;81.40;;;;;;5022612;28;1436;-66
2022/11/08 13:59:29;;;;;;;;;;;15.80;82.20;;;;;;5019613;28;1977;-65
2022/11/08 14:01:58;;;;;;;;;;;15.70;82.40;;;;;;5022834;28;1327;-67
2022/11/08 14:04:26;;;;;;;;;;;15.70;83.30;;;;;;5020249;28;1862;-65
2022/11/08 14:07:00;;;;;;;;;;;15.70;82.20;;;;;;5017197;28;1420;-65
2022/11/08 14:09:34;;;;;;;;;;;15.70;83.20;;;;;;5024192;28;1637;-66
2022/11/08 14:12:05;;;;;;;;;;;15.50;81.60;;;;;;5021424;28;1417;-65
2022/11/08 14:14:38;;;;;;;;;;;15.70;82.40;;;;;;5021145;28;1927;-63
2022/11/08 14:17:12;;;;;;;;;;;15.70;82.50;;;;;;5015241;28;1318;-72
2022/11/08 14:19:40;;;;;;;;;;;15.70;81.10;;;;;;5021783;28;1103;-76
2022/11/08 14:22:13;;;;;;;;;;;15.70;81.30;;;;;;5018831;28;1579;-78
2022/11/08 14:24:43;;;;;;;;;;;15.70;81.60;;;;;;5017305;28;1234;-77
2022/11/08 14:27:12;;;;;;;;;;;15.70;81.50;;;;;;5023321;28;1617;-75
2022/11/08 14:29:39;;;;;;;;;;;15.70;81.30;;;;;;5015377;28;1172;-75
2022/11/08 14:32:15;;;;;;;;;;;15.70;81.80;;;;;;5020787;28;1265;-74
2022/11/08 14:34:43;;;;;;;;;;;15.70;81.00;;;;;;5023008;28;1435;-75
2022/11/08 14:37:17;;;;;;;;;;;15.70;81.60;;;;;;5014700;28;1785;-75
2022/11/08 14:39:46;;;;;;;;;;;15.70;81.40;;;;;;5021282;28;1241;-74
2022/11/08 14:42:18;;;;;;;;;;;15.70;82.40;;;;;;5019825;28;1285;-76
2022/11/08 14:44:46;;;;;;;;;;;15.70;81.20;;;;;;5021033;28;1139;-75
2022/11/08 14:47:22;;;;;;;;;;;15.70;81.40;;;;;;5017875;28;1532;-77
2022/11/08 14:49:50;;;;;;;;;;;15.60;81.40;;;;;;5015146;28;1075;-77
2022/11/08 14:52:21;;;;;;;;;;;15.60;82.10;;;;;;5018692;28;1419;-75
2022/11/08 14:54:59;;;;;;;;;;;15.60;81.10;;;;;;5019927;28;1190;-75
2022/11/08 14:57:27;;;;;;;;;;;15.60;81.40;;;;;;5022955;28;1270;-75
2022/11/08 14:59:55;;;;;;;;;;;15.60;81.40;;;;;;5017190;28;1006;-75
2022/11/08 15:02:23;;;;;;;;;;;15.60;81.20;;;;;;5020758;28;1306;-76
2022/11/08 15:04:52;;;;;;;;;;;15.50;81.10;;;;;;5024654;28;1630;-76
2022/11/08 15:07:21;;;;;;;;;;;15.50;81.40;;;;;;5022892;28;1203;-77
2022/11/08 15:09:50;;;;;;;;;;;15.50;81.70;;;;;;5015435;28;1175;-77
2022/11/08 15:12:20;;;;;;;;;;;15.50;81.20;;;;;;5016859;28;1387;-77
2022/11/08 15:14:50;;;;;;;;;;;15.60;81.30;;;;;;5027260;28;1118;-77
2022/11/08 15:17:31;;;;;;;;;;;15.50;81.50;;;;;;5018278;28;1108;-76
2022/11/08 15:20:03;;;;;;;;;;;15.50;81.10;;;;;;5021523;28;2040;-75
2022/11/08 15:22:32;;;;;;;;;;;15.40;81.60;;;;;;5017713;28;1539;-74
2022/11/08 15:25:02;;;;;;;;;;;15.40;81.80;;;;;;5015890;28;1010;-76
2022/11/08 15:27:30;;;;;;;;;;;15.40;81.50;;;;;;5021176;28;1238;-76
2022/11/08 15:30:01;;;;;;;;;;;15.40;81.60;;;;;;5022824;28;1048;-77